sensor_id;sensor_type;location;lat;lon;timestamp;pressure;altitude;pressure_sealevel;temperature;humidity
7662;BME280;30314;48.184;11.510;2023-09-18T00:00:29;95573.34;;;16.99;100.00
7662;BME280;30314;48.184;11.510;2023-09-18T00:02:57;95564.56;;;16.98;100.00
7662;BME280;30314;48.184;11.510;2023-09-18T00:05:23;95568.25;;;16.94;100.00
7662;BME280;30314;48.184;11.510;2023-09-18T00:07:50;95566.25;;;16.90;100.00
7662;BME280;30314;48.184;11.510;2023-09-18T00:10:16;95561.13;;;16.85;100.00
7662;BME280;30314;48.184;11.510;2023-09-18T00:12:43;95562.66;;;16.86;100.00
7662;BME280;30314;48.184;11.510;2023-09-18T00:15:10;95557.69;;;16.85;100.00
7662;BME280;30314;48.184;11.510;2023-09-18T00:17:37;95557.13;;;16.79;100.00
7662;BME280;30314;48.184;11.510;2023-09-18T00:20:04;95558.69;;;16.80;100.00
7662;BME280;30314;48.184;11.510;2023-09-18T00:22:34;95549.78;;;16.76;100.00
7662;BME280;30314;48.184;11.510;2023-09-18T00:25:00;95552.00;;;16.74;100.00
7662;BME280;30314;48.184;11.510;2023-09-18T00:27:30;95538.00;;;16.65;100.00
7662;BME280;30314;48.184;11.510;2023-09-18T00:29:57;95526.91;;;16.62;100.00
7662;BME280;30314;48.184;11.510;2023-09-18T00:32:23;95530.34;;;16.63;100.00
7662;BME280;30314;48.184;11.510;2023-09-18T00:34:50;95522.22;;;16.59;100.00
7662;BME280;30314;48.184;11.510;2023-09-18T00:37:17;95522.22;;;16.59;100.00
7662;BME280;30314;48.184;11.510;2023-09-18T00:39:43;95517.53;;;16.56;100.00
7662;BME280;30314;48.184;11.510;2023-09-18T00:42:11;95513.53;;;16.50;100.00
7662;BME280;30314;48.184;11.510;2023-09-18T00:44:40;95514.19;;;16.47;100.00
7662;BME280;30314;48.184;11.510;2023-09-18T00:47:08;95518.63;;;16.43;100.00
7662;BME280;30314;48.184;11.510;2023-09-18T00:49:36;95519.28;;;16.40;100.00
7662;BME280;30314;48.184;11.510;2023-09-18T00:52:05;95518.06;;;16.37;100.00
7662;BME280;30314;48.184;11.510;2023-09-18T00:54:33;95520.28;;;16.35;100.00
7662;BME280;30314;48.184;11.510;2023-09-18T00:57:00;95511.50;;;16.34;100.00
7662;BME280;30314;48.184;11.510;2023-09-18T00:59:28;95505.28;;;16.30;100.00
7662;BME280;30314;48.184;11.510;2023-09-18T01:01:55;95504.84;;;16.28;100.00
7662;BME280;30314;48.184;11.510;2023-09-18T01:04:22;95491.97;;;16.30;100.00
7662;BME280;30314;48.184;11.510;2023-09-18T01:06:49;95494.19;;;16.28;100.00
7662;BME280;30314;48.184;11.510;2023-09-18T01:09:18;95493.31;;;16.24;100.00
7662;BME280;30314;48.184;11.510;2023-09-18T01:17:20;95492.81;;;16.22;100.00
7662;BME280;30314;48.184;11.510;2023-09-18T01:19:47;95493.63;;;16.23;100.00
7662;BME280;30314;48.184;11.510;2023-09-18T01:22:16;95496.94;;;16.19;100.00
7662;BME280;30314;48.184;11.510;2023-09-18T01:24:44;95494.47;;;16.14;100.00
7662;BME280;30314;48.184;11.510;2023-09-18T01:27:12;95496.81;;;16.16;100.00
7662;BME280;30314;48.184;11.510;2023-09-18T01:29:40;95494.84;;;16.13;100.00
7662;BME280;30314;48.184;11.510;2023-09-18T01:32:07;95494.72;;;16.09;100.00
7662;BME280;30314;48.184;11.510;2023-09-18T01:34:37;95501.47;;;16.06;100.00
7662;BME280;30314;48.184;11.510;2023-09-18T01:37:07;95498.34;;;16.04;100.00
7662;BME280;30314;48.184;11.510;2023-09-18T01:39:35;95507.31;;;16.00;100.00
7662;BME280;30314;48.184;11.510;2023-09-18T01:42:03;95505.00;;;15.98;100.00
7662;BME280;30314;48.184;11.510;2023-09-18T01:44:35;95492.81;;;15.97;100.00
7662;BME280;30314;48.184;11.510;2023-09-18T01:47:08;95480.13;;;15.94;100.00
7662;BME280;30314;48.184;11.510;2023-09-18T01:49:37;95473.59;;;15.91;100.00
7662;BME280;30314;48.184;11.510;2023-09-18T01:52:07;95462.16;;;15.91;100.00
7662;BME280;30314;48.184;11.510;2023-09-18T01:54:34;95462.16;;;15.91;100.00
7662;BME280;30314;48.184;11.510;2023-09-18T01:57:02;95456.06;;;15.90;100.00
7662;BME280;30314;48.184;11.510;2023-09-18T01:59:29;95447.50;;;15.85;100.00
7662;BME280;30314;48.184;11.510;2023-09-18T02:01:56;95455.81;;;15.83;100.00
7662;BME280;30314;48.184;11.510;2023-09-18T02:04:23;95464.13;;;15.82;100.00
7662;BME280;30314;48.184;11.510;2023-09-18T02:07:11;95468.22;;;15.79;100.00
7662;BME280;30314;48.184;11.510;2023-09-18T02:12:23;95454.00;;;15.75;100.00
7662;BME280;30314;48.184;11.510;2023-09-18T02:14:49;95449.69;;;15.70;100.00
7662;BME280;30314;48.184;11.510;2023-09-18T02:17:17;95453.09;;;15.71;100.00
7662;BME280;30314;48.184;11.510;2023-09-18T02:19:43;95450.31;;;15.67;100.00
7662;BME280;30314;48.184;11.510;2023-09-18T02:22:10;95459.75;;;15.64;100.00
7662;BME280;30314;48.184;11.510;2023-09-18T02:24:36;95450.84;;;15.60;100.00
7662;BME280;30314;48.184;11.510;2023-09-18T02:27:06;95458.84;;;15.60;100.00
7662;BME280;30314;48.184;11.510;2023-09-18T02:29:33;95443.75;;;15.52;100.00
7662;BME280;30314;48.184;11.510;2023-09-18T02:31:59;95453.19;;;15.62;100.00
7662;BME280;30314;48.184;11.510;2023-09-18T02:34:26;95435.22;;;15.59;100.00
7662;BME280;30314;48.184;11.510;2023-09-18T02:36:53;95423.22;;;15.53;100.00
7662;BME280;30314;48.184;11.510;2023-09-18T02:39:20;95436.78;;;15.60;100.00
7662;BME280;30314;48.184;11.510;2023-09-18T02:41:49;95426.00;;;15.56;100.00
7662;BME280;30314;48.184;11.510;2023-09-18T02:44:16;95427.88;;;15.56;100.00
7662;BME280;30314;48.184;11.510;2023-09-18T02:46:43;95421.47;;;15.57;100.00
7662;BME280;30314;48.184;11.510;2023-09-18T02:49:11;95413.03;;;15.55;100.00
7662;BME280;30314;48.184;11.510;2023-09-18T02:51:38;95413.03;;;15.55;100.00
7662;BME280;30314;48.184;11.510;2023-09-18T02:54:05;95407.69;;;15.55;100.00
7662;BME280;30314;48.184;11.510;2023-09-18T02:56:31;95399.94;;;15.49;100.00
7662;BME280;30314;48.184;11.510;2023-09-18T02:58:58;95399.53;;;15.39;100.00
7662;BME280;30314;48.184;11.510;2023-09-18T03:01:25;95416.22;;;15.48;100.00
7662;BME280;30314;48.184;11.510;2023-09-18T03:03:52;95411.91;;;15.43;100.00
7662;BME280;30314;48.184;11.510;2023-09-18T03:06:19;95415.78;;;15.46;100.00
7662;BME280;30314;48.184;11.510;2023-09-18T03:08:45;95405.19;;;15.37;100.00
7662;BME280;30314;48.184;11.510;2023-09-18T03:11:13;95407.41;;;15.35;100.00
7662;BME280;30314;48.184;11.510;2023-09-18T03:13:45;95407.19;;;15.40;100.00
7662;BME280;30314;48.184;11.510;2023-09-18T03:16:17;95394.31;;;15.30;100.00
7662;BME280;30314;48.184;11.510;2023-09-18T03:18:45;95394.75;;;15.32;100.00
7662;BME280;30314;48.184;11.510;2023-09-18T03:21:12;95391.53;;;15.26;100.00
7662;BME280;30314;48.184;11.510;2023-09-18T03:23:39;95392.72;;;15.29;100.00
7662;BME280;30314;48.184;11.510;2023-09-18T03:26:05;95399.94;;;15.28;100.00
7662;BME280;30314;48.184;11.510;2023-09-18T03:28:32;95402.16;;;15.26;100.00
7662;BME280;30314;48.184;11.510;2023-09-18T03:30:59;95391.38;;;15.22;100.00
7662;BME280;30314;48.184;11.510;2023-09-18T03:33:26;95385.28;;;15.22;100.00
7662;BME280;30314;48.184;11.510;2023-09-18T03:35:53;95372.97;;;15.17;100.00
7662;BME280;30314;48.184;11.510;2023-09-18T03:38:28;95374.19;;;15.20;100.00
7662;BME280;30314;48.184;11.510;2023-09-18T03:40:59;95368.94;;;15.11;100.00
7662;BME280;30314;48.184;11.510;2023-09-18T03:43:26;95370.94;;;15.14;100.00
7662;BME280;30314;48.184;11.510;2023-09-18T03:45:53;95371.28;;;15.13;100.00
7662;BME280;30314;48.184;11.510;2023-09-18T03:48:21;95365.63;;;15.14;100.00
7662;BME280;30314;48.184;11.510;2023-09-18T03:50:48;95362.75;;;15.07;100.00
7662;BME280;30314;48.184;11.510;2023-09-18T03:53:14;95358.09;;;15.04;100.00
7662;BME280;30314;48.184;11.510;2023-09-18T03:55:41;95348.72;;;14.98;100.00
7662;BME280;30314;48.184;11.510;2023-09-18T03:58:08;95351.66;;;15.05;100.00
7662;BME280;30314;48.184;11.510;2023-09-18T04:00:34;95350.41;;;15.02;100.00
7662;BME280;30314;48.184;11.510;2023-09-18T04:03:01;95338.75;;;14.94;100.00
7662;BME280;30314;48.184;11.510;2023-09-18T04:05:28;95348.06;;;15.01;100.00
7662;BME280;30314;48.184;11.510;2023-09-18T04:07:56;95338.88;;;14.98;100.00
7662;BME280;30314;48.184;11.510;2023-09-18T04:10:22;95339.66;;;14.99;100.00
7662;BME280;30314;48.184;11.510;2023-09-18T04:12:51;95340.31;;;14.96;100.00
7662;BME280;30314;48.184;11.510;2023-09-18T04:15:19;95335.19;;;14.90;100.00
7662;BME280;30314;48.184;11.510;2023-09-18T04:17:46;95327.53;;;14.89;100.00
7662;BME280;30314;48.184;11.510;2023-09-18T04:20:13;95321.66;;;14.83;100.00
7662;BME280;30314;48.184;11.510;2023-09-18T04:22:44;95322.09;;;14.85;100.00
7662;BME280;30314;48.184;11.510;2023-09-18T04:25:12;95322.09;;;14.85;100.00
7662;BME280;30314;48.184;11.510;2023-09-18T04:27:39;95315.88;;;14.81;100.00
7662;BME280;30314;48.184;11.510;2023-09-18T04:30:06;95323.84;;;14.81;100.00
7662;BME280;30314;48.184;11.510;2023-09-18T04:32:40;95315.16;;;14.72;100.00
7662;BME280;30314;48.184;11.510;2023-09-18T04:35:07;95324.03;;;14.76;100.00
7662;BME280;30314;48.184;11.510;2023-09-18T04:37:36;95327.94;;;14.78;100.00
7662;BME280;30314;48.184;11.510;2023-09-18T04:40:06;95328.28;;;14.77;100.00
7662;BME280;30314;48.184;11.510;2023-09-18T04:42:38;95324.03;;;14.76;100.00
7662;BME280;30314;48.184;11.510;2023-09-18T04:45:06;95321.72;;;14.74;100.00
7662;BME280;30314;48.184;11.510;2023-09-18T04:47:33;95318.78;;;14.67;100.00
7662;BME280;30314;48.184;11.510;2023-09-18T04:50:00;95333.00;;;14.71;100.00
7662;BME280;30314;48.184;11.510;2023-09-18T04:52:27;95338.63;;;14.70;100.00
7662;BME280;30314;48.184;11.510;2023-09-18T04:54:54;95337.09;;;14.69;100.00
7662;BME280;30314;48.184;11.510;2023-09-18T04:57:21;95333.19;;;14.66;100.00
7662;BME280;30314;48.184;11.510;2023-09-18T04:59:49;95335.53;;;14.68;100.00
7662;BME280;30314;48.184;11.510;2023-09-18T05:02:35;95332.59;;;14.60;100.00
7662;BME280;30314;48.184;11.510;2023-09-18T05:05:03;95335.53;;;14.68;100.00
7662;BME280;30314;48.184;11.510;2023-09-18T05:07:30;95337.41;;;14.67;100.00
7662;BME280;30314;48.184;11.510;2023-09-18T05:09:57;95338.19;;;14.68;100.00
7662;BME280;30314;48.184;11.510;2023-09-18T05:12:24;95337.53;;;14.71;100.00
7662;BME280;30314;48.184;11.510;2023-09-18T05:14:51;95339.09;;;14.72;100.00
7662;BME280;30314;48.184;11.510;2023-09-18T05:17:18;95353.41;;;14.79;100.00
7662;BME280;30314;48.184;11.510;2023-09-18T05:19:45;95350.44;;;14.81;100.00
7662;BME280;30314;48.184;11.510;2023-09-18T05:22:11;95352.75;;;14.83;100.00
7662;BME280;30314;48.184;11.510;2023-09-18T05:24:39;95346.03;;;14.85;100.00
7662;BME280;30314;48.184;11.510;2023-09-18T05:27:06;95337.59;;;14.83;100.00
7662;BME280;30314;48.184;11.510;2023-09-18T05:29:34;95343.34;;;14.85;100.00
7662;BME280;30314;48.184;11.510;2023-09-18T05:32:04;95341.94;;;14.88;100.00
7662;BME280;30314;48.184;11.510;2023-09-18T05:34:31;95354.72;;;14.94;100.00
7662;BME280;30314;48.184;11.510;2023-09-18T05:36:58;95348.59;;;14.94;100.00
7662;BME280;30314;48.184;11.510;2023-09-18T05:39:25;95351.38;;;14.98;100.00
7662;BME280;30314;48.184;11.510;2023-09-18T05:41:51;95351.19;;;15.03;100.00
7662;BME280;30314;48.184;11.510;2023-09-18T05:44:18;95352.09;;;15.07;100.00
7662;BME280;30314;48.184;11.510;2023-09-18T05:46:45;95359.22;;;15.15;100.00
7662;BME280;30314;48.184;11.510;2023-09-18T05:49:12;95348.81;;;15.22;100.00
7662;BME280;30314;48.184;11.510;2023-09-18T05:51:39;95342.09;;;15.25;100.00
7662;BME280;30314;48.184;11.510;2023-09-18T05:54:05;95324.88;;;15.22;100.00
7662;BME280;30314;48.184;11.510;2023-09-18T05:56:33;95326.03;;;15.34;100.00
7662;BME280;30314;48.184;11.510;2023-09-18T05:59:00;95327.50;;;15.44;100.00
7662;BME280;30314;48.184;11.510;2023-09-18T06:01:26;95321.66;;;15.50;100.00
7662;BME280;30314;48.184;11.510;2023-09-18T06:03:54;95325.19;;;15.55;100.00
7662;BME280;30314;48.184;11.510;2023-09-18T06:06:20;95329.22;;;15.61;100.00
7662;BME280;30314;48.184;11.510;2023-09-18T06:08:47;95340.53;;;15.70;100.00
7662;BME280;30314;48.184;11.510;2023-09-18T06:11:14;95343.75;;;15.76;100.00
7662;BME280;30314;48.184;11.510;2023-09-18T06:13:40;95333.31;;;15.71;100.00
7662;BME280;30314;48.184;11.510;2023-09-18T06:16:07;95342.56;;;15.86;100.00
7662;BME280;30314;48.184;11.510;2023-09-18T06:18:34;95355.31;;;15.92;100.00
7662;BME280;30314;48.184;11.510;2023-09-18T06:21:04;95360.09;;;15.99;100.00
7662;BME280;30314;48.184;11.510;2023-09-18T06:23:31;95352.09;;;15.99;100.00
7662;BME280;30314;48.184;11.510;2023-09-18T06:25:59;95360.53;;;16.14;100.00
7662;BME280;30314;48.184;11.510;2023-09-18T06:28:25;95344.19;;;16.15;100.00
7662;BME280;30314;48.184;11.510;2023-09-18T06:30:52;95348.97;;;16.22;100.00
7662;BME280;30314;48.184;11.510;2023-09-18T06:33:21;95348.22;;;16.22;100.00
7662;BME280;30314;48.184;11.510;2023-09-18T06:35:47;95365.19;;;16.29;100.00
7662;BME280;30314;48.184;11.510;2023-09-18T06:38:15;95363.84;;;16.35;100.00
7662;BME280;30314;48.184;11.510;2023-09-18T06:40:42;95366.41;;;16.44;100.00
7662;BME280;30314;48.184;11.510;2023-09-18T06:43:08;95368.03;;;16.49;100.00
7662;BME280;30314;48.184;11.510;2023-09-18T06:45:35;95356.03;;;16.55;100.00
7662;BME280;30314;48.184;11.510;2023-09-18T06:48:04;95348.47;;;16.57;100.00
7662;BME280;30314;48.184;11.510;2023-09-18T06:50:31;95362.59;;;16.70;100.00
7662;BME280;30314;48.184;11.510;2023-09-18T06:52:58;95365.13;;;16.79;100.00
7662;BME280;30314;48.184;11.510;2023-09-18T06:55:25;95379.63;;;16.94;100.00
7662;BME280;30314;48.184;11.510;2023-09-18T06:57:51;95387.28;;;17.08;100.00
7662;BME280;30314;48.184;11.510;2023-09-18T07:00:18;95386.59;;;17.11;100.00
7662;BME280;30314;48.184;11.510;2023-09-18T07:02:47;95380.56;;;17.14;100.00
7662;BME280;30314;48.184;11.510;2023-09-18T07:05:16;95398.00;;;17.24;100.00
7662;BME280;30314;48.184;11.510;2023-09-18T07:07:43;95419.31;;;17.37;100.00
7662;BME280;30314;48.184;11.510;2023-09-18T07:10:09;95422.00;;;17.53;100.00
7662;BME280;30314;48.184;11.510;2023-09-18T07:12:36;95416.06;;;17.88;100.00
7662;BME280;30314;48.184;11.510;2023-09-18T07:15:03;95427.41;;;19.01;100.00
7662;BME280;30314;48.184;11.510;2023-09-18T07:17:30;95444.88;;;20.17;100.00
7662;BME280;30314;48.184;11.510;2023-09-18T07:19:57;95436.53;;;20.72;100.00
7662;BME280;30314;48.184;11.510;2023-09-18T07:22:25;95440.53;;;20.59;100.00
7662;BME280;30314;48.184;11.510;2023-09-18T07:24:54;95435.53;;;20.30;100.00
7662;BME280;30314;48.184;11.510;2023-09-18T07:27:20;95441.97;;;20.02;100.00
7662;BME280;30314;48.184;11.510;2023-09-18T07:29:47;95434.28;;;20.00;100.00
7662;BME280;30314;48.184;11.510;2023-09-18T07:32:14;95452.03;;;20.09;100.00
7662;BME280;30314;48.184;11.510;2023-09-18T07:35:01;95443.03;;;20.21;100.00
7662;BME280;30314;48.184;11.510;2023-09-18T07:37:27;95437.44;;;20.06;100.00
7662;BME280;30314;48.184;11.510;2023-09-18T07:39:54;95436.81;;;19.93;100.00
7662;BME280;30314;48.184;11.510;2023-09-18T07:42:24;95432.91;;;19.87;100.00
7662;BME280;30314;48.184;11.510;2023-09-18T07:44:51;95432.72;;;19.99;100.00
7662;BME280;30314;48.184;11.510;2023-09-18T07:47:17;95424.81;;;20.34;100.00
7662;BME280;30314;48.184;11.510;2023-09-18T07:49:44;95423.94;;;20.49;100.00
7662;BME280;30314;48.184;11.510;2023-09-18T07:52:11;95427.88;;;20.32;100.00
7662;BME280;30314;48.184;11.510;2023-09-18T07:54:37;95423.84;;;20.19;100.00
7662;BME280;30314;48.184;11.510;2023-09-18T07:57:04;95435.09;;;20.05;100.00
7662;BME280;30314;48.184;11.510;2023-09-18T07:59:36;95440.63;;;19.92;100.00
7662;BME280;30314;48.184;11.510;2023-09-18T08:02:03;95449.44;;;19.93;100.00
7662;BME280;30314;48.184;11.510;2023-09-18T08:04:31;95439.09;;;19.91;100.00
7662;BME280;30314;48.184;11.510;2023-09-18T08:06:58;95468.28;;;19.96;100.00
7662;BME280;30314;48.184;11.510;2023-09-18T08:09:24;95463.34;;;19.98;100.00
7662;BME280;30314;48.184;11.510;2023-09-18T08:11:51;95473.91;;;19.91;100.00
7662;BME280;30314;48.184;11.510;2023-09-18T08:14:22;95470.81;;;19.89;100.00
7662;BME280;30314;48.184;11.510;2023-09-18T08:16:55;95470.81;;;19.89;100.00
7662;BME280;30314;48.184;11.510;2023-09-18T08:19:23;95471.88;;;19.84;100.00
7662;BME280;30314;48.184;11.510;2023-09-18T08:21:54;95478.28;;;19.80;100.00
7662;BME280;30314;48.184;11.510;2023-09-18T08:24:21;95483.25;;;19.78;100.00
7662;BME280;30314;48.184;11.510;2023-09-18T08:29:45;95496.50;;;19.70;100.00
7662;BME280;30314;48.184;11.510;2023-09-18T08:32:12;95490.97;;;19.63;100.00
7662;BME280;30314;48.184;11.510;2023-09-18T08:34:39;95493.41;;;19.68;100.00
7662;BME280;30314;48.184;11.510;2023-09-18T08:37:05;95493.25;;;19.61;100.00
7662;BME280;30314;48.184;11.510;2023-09-18T08:39:32;95504.78;;;19.65;100.00
7662;BME280;30314;48.184;11.510;2023-09-18T08:42:03;95513.94;;;19.64;100.00
7662;BME280;30314;48.184;11.510;2023-09-18T08:44:31;95512.00;;;19.61;100.00
7662;BME280;30314;48.184;11.510;2023-09-18T08:46:58;95514.38;;;19.66;100.00
7662;BME280;30314;48.184;11.510;2023-09-18T08:49:25;95524.31;;;19.66;100.00
7662;BME280;30314;48.184;11.510;2023-09-18T08:51:55;95512.13;;;19.68;100.00
7662;BME280;30314;48.184;11.510;2023-09-18T08:54:22;95520.53;;;19.67;100.00
7662;BME280;30314;48.184;11.510;2023-09-18T08:56:52;95525.19;;;19.70;100.00
7662;BME280;30314;48.184;11.510;2023-09-18T08:59:21;95518.78;;;19.75;100.00
7662;BME280;30314;48.184;11.510;2023-09-18T09:01:48;95531.84;;;19.76;100.00
7662;BME280;30314;48.184;11.510;2023-09-18T09:04:15;95532.50;;;19.73;100.00
7662;BME280;30314;48.184;11.510;2023-09-18T09:06:42;95527.59;;;19.75;100.00
7662;BME280;30314;48.184;11.510;2023-09-18T09:09:10;95533.72;;;19.76;100.00
7662;BME280;30314;48.184;11.510;2023-09-18T09:11:48;95539.56;;;19.81;100.00
7662;BME280;30314;48.184;11.510;2023-09-18T09:14:15;95531.88;;;19.80;100.00
7662;BME280;30314;48.184;11.510;2023-09-18T09:16:48;95540.38;;;19.82;100.00
7662;BME280;30314;48.184;11.510;2023-09-18T09:19:33;95529.66;;;19.82;100.00
7662;BME280;30314;48.184;11.510;2023-09-18T09:22:03;95523.44;;;19.78;100.00
7662;BME280;30314;48.184;11.510;2023-09-18T09:27:04;95527.72;;;19.82;100.00
7662;BME280;30314;48.184;11.510;2023-09-18T09:29:31;95524.97;;;19.79;100.00
7662;BME280;30314;48.184;11.510;2023-09-18T09:32:16;95524.34;;;19.85;100.00
7662;BME280;30314;48.184;11.510;2023-09-18T09:34:44;95528.56;;;19.86;100.00
7662;BME280;30314;48.184;11.510;2023-09-18T09:37:12;95525.25;;;19.93;100.00
7662;BME280;30314;48.184;11.510;2023-09-18T09:39:50;95537.66;;;20.02;100.00
7662;BME280;30314;48.184;11.510;2023-09-18T09:42:20;95530.75;;;20.00;100.00
7662;BME280;30314;48.184;11.510;2023-09-18T09:45:01;95549.28;;;20.09;100.00
7662;BME280;30314;48.184;11.510;2023-09-18T09:47:34;95548.22;;;20.14;100.00
7662;BME280;30314;48.184;11.510;2023-09-18T09:50:15;95532.63;;;20.20;100.00
7662;BME280;30314;48.184;11.510;2023-09-18T09:52:50;95546.38;;;20.18;100.00
7662;BME280;30314;48.184;11.510;2023-09-18T09:57:52;95542.63;;;20.23;100.00
7662;BME280;30314;48.184;11.510;2023-09-18T10:00:19;95560.34;;;20.27;100.00
7662;BME280;30314;48.184;11.510;2023-09-18T10:03:01;95562.53;;;20.22;100.00
7662;BME280;30314;48.184;11.510;2023-09-18T10:05:35;95559.84;;;20.22;100.00
7662;BME280;30314;48.184;11.510;2023-09-18T10:08:06;95561.06;;;20.24;100.00
7662;BME280;30314;48.184;11.510;2023-09-18T10:10:40;95554.66;;;20.33;100.00
7662;BME280;30314;48.184;11.510;2023-09-18T10:13:12;95557.19;;;20.45;100.00
7662;BME280;30314;48.184;11.510;2023-09-18T10:15:42;95553.03;;;20.48;100.00
7662;BME280;30314;48.184;11.510;2023-09-18T10:24:08;95564.53;;;20.48;100.00
7662;BME280;30314;48.184;11.510;2023-09-18T10:26:46;95559.16;;;20.48;100.00
7662;BME280;30314;48.184;11.510;2023-09-18T10:29:15;95556.13;;;20.50;100.00
7662;BME280;30314;48.184;11.510;2023-09-18T10:31:46;95553.84;;;20.52;100.00
7662;BME280;30314;48.184;11.510;2023-09-18T10:34:15;95559.63;;;20.54;100.00
7662;BME280;30314;48.184;11.510;2023-09-18T10:36:43;95553.09;;;20.51;100.00
7662;BME280;30314;48.184;11.510;2023-09-18T10:39:11;95568.88;;;20.56;100.00
7662;BME280;30314;48.184;11.510;2023-09-18T10:41:40;95571.00;;;20.67;100.00
7662;BME280;30314;48.184;11.510;2023-09-18T10:44:09;95568.38;;;20.70;100.00
7662;BME280;30314;48.184;11.510;2023-09-18T10:46:37;95570.81;;;20.79;100.00
7662;BME280;30314;48.184;11.510;2023-09-18T10:49:04;95569.81;;;20.88;100.00
7662;BME280;30314;48.184;11.510;2023-09-18T10:51:32;95562.84;;;20.87;100.00
7662;BME280;30314;48.184;11.510;2023-09-18T10:54:04;95572.78;;;20.82;100.00
7662;BME280;30314;48.184;11.510;2023-09-18T10:56:31;95577.41;;;20.86;100.00
7662;BME280;30314;48.184;11.510;2023-09-18T10:59:00;95568.00;;;20.95;100.00
7662;BME280;30314;48.184;11.510;2023-09-18T11:01:29;95568.16;;;21.06;100.00
7662;BME280;30314;48.184;11.510;2023-09-18T11:04:07;95571.97;;;21.05;100.00
7662;BME280;30314;48.184;11.510;2023-09-18T11:09:21;95567.22;;;21.22;100.00
7662;BME280;30314;48.184;11.510;2023-09-18T11:17:37;95576.81;;;21.23;100.00
7662;BME280;30314;48.184;11.510;2023-09-18T11:20:15;95579.50;;;21.23;100.00
7662;BME280;30314;48.184;11.510;2023-09-18T11:23:15;95587.00;;;21.37;100.00
7662;BME280;30314;48.184;11.510;2023-09-18T11:25:44;95589.22;;;21.31;100.00
7662;BME280;30314;48.184;11.510;2023-09-18T11:28:16;95595.75;;;21.30;100.00
7662;BME280;30314;48.184;11.510;2023-09-18T11:30:51;95595.63;;;21.23;100.00
7662;BME280;30314;48.184;11.510;2023-09-18T11:33:33;95609.16;;;21.30;100.00
7662;BME280;30314;48.184;11.510;2023-09-18T11:36:06;95625.47;;;21.18;100.00
7662;BME280;30314;48.184;11.510;2023-09-18T11:38:35;95628.41;;;21.09;100.00
7662;BME280;30314;48.184;11.510;2023-09-18T11:41:23;95641.53;;;21.14;100.00
7662;BME280;30314;48.184;11.510;2023-09-18T11:43:52;95641.47;;;21.10;100.00
7662;BME280;30314;48.184;11.510;2023-09-18T11:46:20;95643.25;;;21.03;100.00
7662;BME280;30314;48.184;11.510;2023-09-18T11:48:48;95661.16;;;20.95;100.00
7662;BME280;30314;48.184;11.510;2023-09-18T11:51:22;95658.06;;;20.93;100.00
7662;BME280;30314;48.184;11.510;2023-09-18T11:53:55;95659.72;;;20.78;100.00
7662;BME280;30314;48.184;11.510;2023-09-18T11:56:22;95677.38;;;20.59;100.00
7662;BME280;30314;48.184;11.510;2023-09-18T11:58:50;95677.88;;;20.45;100.00
7662;BME280;30314;48.184;11.510;2023-09-18T12:01:18;95682.41;;;20.41;100.00
7662;BME280;30314;48.184;11.510;2023-09-18T12:03:45;95676.75;;;20.26;100.00
7662;BME280;30314;48.184;11.510;2023-09-18T12:06:14;95680.91;;;20.24;100.00
7662;BME280;30314;48.184;11.510;2023-09-18T12:08:42;95685.09;;;20.21;100.00
7662;BME280;30314;48.184;11.510;2023-09-18T12:11:09;95701.09;;;20.18;100.00
7662;BME280;30314;48.184;11.510;2023-09-18T12:13:35;95707.50;;;20.13;100.00
7662;BME280;30314;48.184;11.510;2023-09-18T12:16:03;95705.13;;;20.08;100.00
7662;BME280;30314;48.184;11.510;2023-09-18T12:18:35;95711.03;;;19.97;100.00
7662;BME280;30314;48.184;11.510;2023-09-18T12:21:07;95717.00;;;19.91;100.00
7662;BME280;30314;48.184;11.510;2023-09-18T12:23:38;95719.00;;;19.78;100.00
7662;BME280;30314;48.184;11.510;2023-09-18T12:26:06;95719.16;;;19.69;100.00
7662;BME280;30314;48.184;11.510;2023-09-18T12:28:35;95724.72;;;19.44;100.00
7662;BME280;30314;48.184;11.510;2023-09-18T12:31:03;95728.97;;;19.29;100.00
7662;BME280;30314;48.184;11.510;2023-09-18T12:33:34;95730.84;;;19.28;100.00
7662;BME280;30314;48.184;11.510;2023-09-18T12:36:03;95739.56;;;19.25;100.00
7662;BME280;30314;48.184;11.510;2023-09-18T12:38:31;95729.63;;;19.26;100.00
7662;BME280;30314;48.184;11.510;2023-09-18T12:40:59;95730.84;;;19.12;100.00
7662;BME280;30314;48.184;11.510;2023-09-18T12:43:44;95734.41;;;19.17;100.00
7662;BME280;30314;48.184;11.510;2023-09-18T12:46:12;95726.66;;;18.99;100.00
7662;BME280;30314;48.184;11.510;2023-09-18T12:48:40;95737.31;;;18.95;100.00
7662;BME280;30314;48.184;11.510;2023-09-18T12:51:12;95736.31;;;18.87;100.00
7662;BME280;30314;48.184;11.510;2023-09-18T12:53:40;95747.81;;;18.88;100.00
7662;BME280;30314;48.184;11.510;2023-09-18T12:56:11;95757.44;;;18.77;100.00
7662;BME280;30314;48.184;11.510;2023-09-18T12:58:40;95758.00;;;18.70;100.00
7662;BME280;30314;48.184;11.510;2023-09-18T13:01:27;95768.50;;;18.63;100.00
7662;BME280;30314;48.184;11.510;2023-09-18T13:03:54;95760.53;;;18.50;100.00
7662;BME280;30314;48.184;11.510;2023-09-18T13:06:22;95763.59;;;18.24;100.00
7662;BME280;30314;48.184;11.510;2023-09-18T13:08:49;95765.81;;;18.22;100.00
7662;BME280;30314;48.184;11.510;2023-09-18T13:11:16;95763.28;;;18.00;100.00
7662;BME280;30314;48.184;11.510;2023-09-18T13:13:43;95758.63;;;17.97;100.00
7662;BME280;30314;48.184;11.510;2023-09-18T13:16:13;95764.31;;;17.96;100.00
7662;BME280;30314;48.184;11.510;2023-09-18T13:18:41;95761.41;;;17.88;100.00
7662;BME280;30314;48.184;11.510;2023-09-18T13:21:12;95766.22;;;17.95;100.00
7662;BME280;30314;48.184;11.510;2023-09-18T13:23:39;95767.28;;;17.94;100.00
7662;BME280;30314;48.184;11.510;2023-09-18T13:26:07;95773.66;;;17.89;100.00
7662;BME280;30314;48.184;11.510;2023-09-18T13:28:35;95777.44;;;17.88;100.00